Terminal Aerodrome Forecast
Issued by NWS Spokane, WA

Home | Current Version | Previous Version | Text Only | Print | Product List | Glossary On
Versions: 1 2 3 4 5 6 7 8 9 10 11 12 13 14 15 16 17 18 19 20 21 22 23 24 25 26 27 28 29 30 31 32 33 34 35 36 37 38
000
FTUS46 KOTX 011235 AAA
TAFLWS
TAF AMD
KLWS 011235Z 0113/0212 08005KT P6SM BKN080 OVC100
     FM011600 10007KT P6SM BKN050 OVC070
     FM012100 13005KT P6SM -RA BKN030 OVC050
     FM020300 18005KT P6SM VCSH OVC040
     FM020600 20004KT P6SM SCT025 BKN040=

USA.gov is the U.S. government's official web portal to all federal, state and local government web resources and services.